sensor_id;sensor_type;location;lat;lon;timestamp;pressure;altitude;pressure_sealevel;temperature;humidity
17383;BME280;8809;51.892;8.384;2023-11-21T00:00:16;100008.09;;;7.21;100.00
17383;BME280;8809;51.892;8.384;2023-11-21T00:02:44;100007.66;;;7.31;100.00
17383;BME280;8809;51.892;8.384;2023-11-21T00:05:13;100009.84;;;7.22;100.00
17383;BME280;8809;51.892;8.384;2023-11-21T00:07:41;100009.13;;;7.24;100.00
17383;BME280;8809;51.892;8.384;2023-11-21T00:10:09;100015.25;;;7.26;100.00
17383;BME280;8809;51.892;8.384;2023-11-21T00:12:37;100007.66;;;7.31;100.00
17383;BME280;8809;51.892;8.384;2023-11-21T00:15:05;100007.16;;;7.38;100.00
17383;BME280;8809;51.892;8.384;2023-11-21T00:17:36;100000.78;;;7.31;100.00
17383;BME280;8809;51.892;8.384;2023-11-21T00:20:04;100007.81;;;7.34;100.00
17383;BME280;8809;51.892;8.384;2023-11-21T00:22:33;100015.81;;;7.38;100.00
17383;BME280;8809;51.892;8.384;2023-11-21T00:25:00;100018.19;;;7.34;100.00
17383;BME280;8809;51.892;8.384;2023-11-21T00:27:27;100016.56;;;7.36;100.00
17383;BME280;8809;51.892;8.384;2023-11-21T00:29:54;100021.53;;;7.51;100.00
17383;BME280;8809;51.892;8.384;2023-11-21T00:32:21;100023.53;;;7.56;100.00
17383;BME280;8809;51.892;8.384;2023-11-21T00:34:58;100016.97;;;7.64;100.00
17383;BME280;8809;51.892;8.384;2023-11-21T00:37:26;100027.56;;;7.69;100.00
17383;BME280;8809;51.892;8.384;2023-11-21T00:39:57;100032.28;;;7.58;100.00
17383;BME280;8809;51.892;8.384;2023-11-21T00:42:24;100028.31;;;7.66;100.00
17383;BME280;8809;51.892;8.384;2023-11-21T00:44:51;100029.06;;;7.64;100.00
17383;BME280;8809;51.892;8.384;2023-11-21T00:47:19;100028.91;;;7.61;100.00
17383;BME280;8809;51.892;8.384;2023-11-21T00:49:46;100020.53;;;7.66;100.00
17383;BME280;8809;51.892;8.384;2023-11-21T00:52:16;100035.13;;;7.64;100.00
17383;BME280;8809;51.892;8.384;2023-11-21T00:54:43;100024.91;;;7.67;100.00
17383;BME280;8809;51.892;8.384;2023-11-21T00:57:10;100025.22;;;7.75;100.00
17383;BME280;8809;51.892;8.384;2023-11-21T00:59:38;100022.00;;;7.80;100.00
17383;BME280;8809;51.892;8.384;2023-11-21T01:02:05;100027.06;;;7.77;100.00
17383;BME280;8809;51.892;8.384;2023-11-21T01:04:35;100032.50;;;7.83;100.00
17383;BME280;8809;51.892;8.384;2023-11-21T01:07:03;100029.03;;;7.83;100.00
17383;BME280;8809;51.892;8.384;2023-11-21T01:09:32;100034.53;;;7.91;100.00
17383;BME280;8809;51.892;8.384;2023-11-21T01:11:59;100043.44;;;7.96;100.00
17383;BME280;8809;51.892;8.384;2023-11-21T01:14:27;100045.47;;;8.03;100.00
17383;BME280;8809;51.892;8.384;2023-11-21T01:16:54;100049.50;;;8.17;100.00
17383;BME280;8809;51.892;8.384;2023-11-21T01:19:21;100052.50;;;8.05;100.00
17383;BME280;8809;51.892;8.384;2023-11-21T01:21:48;100052.75;;;8.11;100.00
17383;BME280;8809;51.892;8.384;2023-11-21T01:24:15;100053.44;;;8.07;100.00
17383;BME280;8809;51.892;8.384;2023-11-21T01:26:42;100049.84;;;8.04;100.00
17383;BME280;8809;51.892;8.384;2023-11-21T01:29:12;100053.25;;;8.03;100.00
17383;BME280;8809;51.892;8.384;2023-11-21T01:31:39;100054.97;;;8.02;100.00
17383;BME280;8809;51.892;8.384;2023-11-21T01:34:09;100051.41;;;8.00;100.00
17383;BME280;8809;51.892;8.384;2023-11-21T01:36:36;100059.59;;;8.09;100.00
17383;BME280;8809;51.892;8.384;2023-11-21T01:39:03;100051.28;;;8.18;100.00
17383;BME280;8809;51.892;8.384;2023-11-21T01:41:34;100052.31;;;8.22;100.00
17383;BME280;8809;51.892;8.384;2023-11-21T01:44:04;100049.78;;;8.23;100.00
17383;BME280;8809;51.892;8.384;2023-11-21T01:46:33;100058.66;;;8.28;100.00
17383;BME280;8809;51.892;8.384;2023-11-21T01:49:00;100051.81;;;8.30;100.00
17383;BME280;8809;51.892;8.384;2023-11-21T01:51:28;100049.88;;;8.25;100.00
17383;BME280;8809;51.892;8.384;2023-11-21T01:53:57;100048.44;;;8.31;100.00
17383;BME280;8809;51.892;8.384;2023-11-21T01:56:25;100041.22;;;8.45;100.00
17383;BME280;8809;51.892;8.384;2023-11-21T01:58:52;100041.28;;;8.27;100.00
17383;BME280;8809;51.892;8.384;2023-11-21T02:01:22;100037.03;;;8.08;100.00
17383;BME280;8809;51.892;8.384;2023-11-21T02:03:49;100040.03;;;7.97;100.00
17383;BME280;8809;51.892;8.384;2023-11-21T02:06:16;100047.25;;;8.04;100.00
17383;BME280;8809;51.892;8.384;2023-11-21T02:08:44;100046.16;;;7.99;100.00
17383;BME280;8809;51.892;8.384;2023-11-21T02:11:11;100049.56;;;7.98;100.00
17383;BME280;8809;51.892;8.384;2023-11-21T02:13:39;100055.59;;;8.17;100.00
17383;BME280;8809;51.892;8.384;2023-11-21T02:16:09;100059.13;;;7.99;100.00
17383;BME280;8809;51.892;8.384;2023-11-21T02:18:39;100070.06;;;8.11;100.00
17383;BME280;8809;51.892;8.384;2023-11-21T02:21:07;100070.63;;;8.04;100.00
17383;BME280;8809;51.892;8.384;2023-11-21T02:23:37;100069.97;;;8.09;100.00
17383;BME280;8809;51.892;8.384;2023-11-21T02:26:08;100073.47;;;8.10;100.00
17383;BME280;8809;51.892;8.384;2023-11-21T02:28:35;100076.28;;;8.14;100.00
17383;BME280;8809;51.892;8.384;2023-11-21T02:31:04;100085.03;;;8.16;100.00
17383;BME280;8809;51.892;8.384;2023-11-21T02:33:31;100087.66;;;8.18;100.00
17383;BME280;8809;51.892;8.384;2023-11-21T02:35:59;100076.34;;;8.35;100.00
17383;BME280;8809;51.892;8.384;2023-11-21T02:38:26;100086.19;;;8.23;100.00
17383;BME280;8809;51.892;8.384;2023-11-21T02:40:56;100090.66;;;8.27;100.00
17383;BME280;8809;51.892;8.384;2023-11-21T02:43:24;100092.50;;;8.30;100.00
17383;BME280;8809;51.892;8.384;2023-11-21T02:45:51;100098.41;;;8.26;100.00
17383;BME280;8809;51.892;8.384;2023-11-21T02:48:18;100093.16;;;8.24;100.00
17383;BME280;8809;51.892;8.384;2023-11-21T02:50:45;100092.50;;;8.30;100.00
17383;BME280;8809;51.892;8.384;2023-11-21T02:53:12;100090.09;;;8.33;100.00
17383;BME280;8809;51.892;8.384;2023-11-21T02:55:40;100085.59;;;8.30;100.00
17383;BME280;8809;51.892;8.384;2023-11-21T02:58:09;100095.84;;;8.27;100.00
17383;BME280;8809;51.892;8.384;2023-11-21T03:00:36;100101.94;;;8.28;100.00
17383;BME280;8809;51.892;8.384;2023-11-21T03:03:03;100101.75;;;8.23;100.00
17383;BME280;8809;51.892;8.384;2023-11-21T03:05:30;100106.13;;;8.24;100.00
17383;BME280;8809;51.892;8.384;2023-11-21T03:07:57;100099.16;;;8.23;100.00
17383;BME280;8809;51.892;8.384;2023-11-21T03:10:24;100098.06;;;8.18;100.00
17383;BME280;8809;51.892;8.384;2023-11-21T03:12:53;100102.34;;;8.16;100.00
17383;BME280;8809;51.892;8.384;2023-11-21T03:15:22;100104.22;;;8.20;100.00
17383;BME280;8809;51.892;8.384;2023-11-21T03:17:49;100105.84;;;8.18;100.00
17383;BME280;8809;51.892;8.384;2023-11-21T03:20:16;100111.75;;;8.33;100.00
17383;BME280;8809;51.892;8.384;2023-11-21T03:22:43;100113.78;;;8.40;100.00
17383;BME280;8809;51.892;8.384;2023-11-21T03:25:10;100114.28;;;8.32;100.00
17383;BME280;8809;51.892;8.384;2023-11-21T03:27:37;100115.72;;;8.25;100.00
17383;BME280;8809;51.892;8.384;2023-11-21T03:30:08;100119.38;;;8.30;100.00
17383;BME280;8809;51.892;8.384;2023-11-21T03:32:37;100119.25;;;8.27;100.00
17383;BME280;8809;51.892;8.384;2023-11-21T03:35:05;100129.00;;;8.12;100.00
17383;BME280;8809;51.892;8.384;2023-11-21T03:37:33;100124.94;;;8.18;100.00
17383;BME280;8809;51.892;8.384;2023-11-21T03:40:00;100127.75;;;8.23;100.00
17383;BME280;8809;51.892;8.384;2023-11-21T03:42:29;100138.00;;;8.20;100.00
17383;BME280;8809;51.892;8.384;2023-11-21T03:44:56;100146.13;;;8.28;100.00
17383;BME280;8809;51.892;8.384;2023-11-21T03:47:23;100143.19;;;8.20;100.00
17383;BME280;8809;51.892;8.384;2023-11-21T03:49:52;100149.69;;;8.30;100.00
17383;BME280;8809;51.892;8.384;2023-11-21T03:52:19;100148.41;;;8.20;100.00
17383;BME280;8809;51.892;8.384;2023-11-21T03:54:46;100145.13;;;8.24;100.00
17383;BME280;8809;51.892;8.384;2023-11-21T03:57:13;100152.91;;;8.24;100.00
17383;BME280;8809;51.892;8.384;2023-11-21T03:59:40;100152.38;;;8.31;100.00
17383;BME280;8809;51.892;8.384;2023-11-21T04:02:07;100144.31;;;8.25;100.00
17383;BME280;8809;51.892;8.384;2023-11-21T04:04:35;100158.94;;;8.23;100.00
17383;BME280;8809;51.892;8.384;2023-11-21T04:07:04;100163.56;;;8.30;100.00
17383;BME280;8809;51.892;8.384;2023-11-21T04:09:31;100161.25;;;8.36;100.00
17383;BME280;8809;51.892;8.384;2023-11-21T04:11:59;100166.59;;;8.39;100.00
17383;BME280;8809;51.892;8.384;2023-11-21T04:14:26;100165.19;;;8.28;100.00
17383;BME280;8809;51.892;8.384;2023-11-21T04:16:54;100170.81;;;8.37;100.00
17383;BME280;8809;51.892;8.384;2023-11-21T04:19:21;100177.81;;;8.38;100.00
17383;BME280;8809;51.892;8.384;2023-11-21T04:21:48;100178.91;;;8.43;100.00
17383;BME280;8809;51.892;8.384;2023-11-21T04:24:16;100188.53;;;8.46;100.00
17383;BME280;8809;51.892;8.384;2023-11-21T04:26:44;100184.94;;;8.42;100.00
17383;BME280;8809;51.892;8.384;2023-11-21T04:29:11;100187.53;;;8.42;100.00
17383;BME280;8809;51.892;8.384;2023-11-21T04:31:38;100184.94;;;8.42;100.00
17383;BME280;8809;51.892;8.384;2023-11-21T04:34:05;100184.78;;;8.39;100.00
17383;BME280;8809;51.892;8.384;2023-11-21T04:36:32;100190.69;;;8.35;100.00
17383;BME280;8809;51.892;8.384;2023-11-21T04:39:00;100183.81;;;8.37;100.00
17383;BME280;8809;51.892;8.384;2023-11-21T04:41:29;100182.31;;;8.42;100.00
17383;BME280;8809;51.892;8.384;2023-11-21T04:43:57;100181.63;;;8.46;100.00
17383;BME280;8809;51.892;8.384;2023-11-21T04:46:24;100184.22;;;8.46;100.00
17383;BME280;8809;51.892;8.384;2023-11-21T04:48:51;100187.78;;;8.48;100.00
17383;BME280;8809;51.892;8.384;2023-11-21T04:51:20;100196.53;;;8.50;100.00
17383;BME280;8809;51.892;8.384;2023-11-21T04:53:47;100190.31;;;8.47;100.00
17383;BME280;8809;51.892;8.384;2023-11-21T04:56:15;100195.50;;;8.47;100.00
17383;BME280;8809;51.892;8.384;2023-11-21T04:58:45;100194.91;;;8.52;100.00
17383;BME280;8809;51.892;8.384;2023-11-21T05:01:12;100200.91;;;8.51;100.00
17383;BME280;8809;51.892;8.384;2023-11-21T05:03:39;100194.69;;;8.48;100.00
17383;BME280;8809;51.892;8.384;2023-11-21T05:06:09;100189.50;;;8.48;100.00
17383;BME280;8809;51.892;8.384;2023-11-21T05:08:36;100194.63;;;8.46;100.00
17383;BME280;8809;51.892;8.384;2023-11-21T05:11:03;100194.50;;;8.43;100.00
17383;BME280;8809;51.892;8.384;2023-11-21T05:13:34;100193.53;;;8.41;100.00
17383;BME280;8809;51.892;8.384;2023-11-21T05:16:02;100199.31;;;8.34;100.00
17383;BME280;8809;51.892;8.384;2023-11-21T05:18:32;100202.53;;;8.30;100.00
17383;BME280;8809;51.892;8.384;2023-11-21T05:21:00;100208.38;;;8.25;100.00
17383;BME280;8809;51.892;8.384;2023-11-21T05:23:27;100211.47;;;8.35;100.00
17383;BME280;8809;51.892;8.384;2023-11-21T05:25:54;100212.00;;;8.47;100.00
17383;BME280;8809;51.892;8.384;2023-11-21T05:28:22;100223.16;;;8.45;100.00
17383;BME280;8809;51.892;8.384;2023-11-21T05:30:49;100216.88;;;8.40;100.00
17383;BME280;8809;51.892;8.384;2023-11-21T05:33:18;100221.88;;;8.35;100.00
17383;BME280;8809;51.892;8.384;2023-11-21T05:35:45;100221.88;;;8.35;100.00
17383;BME280;8809;51.892;8.384;2023-11-21T05:38:14;100220.34;;;8.40;100.00
17383;BME280;8809;51.892;8.384;2023-11-21T05:40:41;100216.03;;;8.41;100.00
17383;BME280;8809;51.892;8.384;2023-11-21T05:43:09;100217.59;;;8.37;100.00
17383;BME280;8809;51.892;8.384;2023-11-21T05:45:37;100218.25;;;8.32;100.00
17383;BME280;8809;51.892;8.384;2023-11-21T05:48:04;100212.22;;;8.33;100.00
17383;BME280;8809;51.892;8.384;2023-11-21T05:50:33;100225.22;;;8.33;100.00
17383;BME280;8809;51.892;8.384;2023-11-21T05:53:00;100228.97;;;8.39;100.00
17383;BME280;8809;51.892;8.384;2023-11-21T05:55:27;100230.06;;;8.44;100.00
17383;BME280;8809;51.892;8.384;2023-11-21T05:57:55;100232.19;;;8.53;100.00
17383;BME280;8809;51.892;8.384;2023-11-21T06:00:22;100232.59;;;8.43;100.00
17383;BME280;8809;51.892;8.384;2023-11-21T06:02:51;100233.81;;;8.51;100.00
17383;BME280;8809;51.892;8.384;2023-11-21T06:05:20;100239.09;;;8.52;100.00
17383;BME280;8809;51.892;8.384;2023-11-21T06:07:50;100244.72;;;8.42;100.00
17383;BME280;8809;51.892;8.384;2023-11-21T06:10:19;100247.97;;;8.38;100.00
17383;BME280;8809;51.892;8.384;2023-11-21T06:12:46;100250.66;;;8.40;100.00
17383;BME280;8809;51.892;8.384;2023-11-21T06:15:14;100262.84;;;8.41;100.00
17383;BME280;8809;51.892;8.384;2023-11-21T06:17:42;100259.97;;;8.54;100.00
17383;BME280;8809;51.892;8.384;2023-11-21T06:20:11;100269.59;;;8.37;100.00
17383;BME280;8809;51.892;8.384;2023-11-21T06:22:41;100271.72;;;8.46;100.00
17383;BME280;8809;51.892;8.384;2023-11-21T06:25:11;100272.06;;;8.53;100.00
17383;BME280;8809;51.892;8.384;2023-11-21T06:27:39;100278.75;;;8.48;100.00
17383;BME280;8809;51.892;8.384;2023-11-21T06:30:07;100282.72;;;8.40;100.00
17383;BME280;8809;51.892;8.384;2023-11-21T06:32:35;100289.72;;;8.41;100.00
17383;BME280;8809;51.892;8.384;2023-11-21T06:35:03;100289.78;;;8.43;100.00
17383;BME280;8809;51.892;8.384;2023-11-21T06:37:30;100296.69;;;8.42;100.00
17383;BME280;8809;51.892;8.384;2023-11-21T06:39:59;100300.75;;;8.36;100.00
17383;BME280;8809;51.892;8.384;2023-11-21T06:42:27;100309.06;;;8.48;100.00
17383;BME280;8809;51.892;8.384;2023-11-21T06:44:55;100314.19;;;8.46;100.00
17383;BME280;8809;51.892;8.384;2023-11-21T06:47:23;100319.53;;;8.49;100.00
17383;BME280;8809;51.892;8.384;2023-11-21T06:49:52;100312.63;;;8.50;100.00
17383;BME280;8809;51.892;8.384;2023-11-21T06:52:19;100321.16;;;8.47;100.00
17383;BME280;8809;51.892;8.384;2023-11-21T06:54:47;100321.31;;;8.50;100.00
17383;BME280;8809;51.892;8.384;2023-11-21T06:57:17;100328.88;;;8.64;100.00
17383;BME280;8809;51.892;8.384;2023-11-21T06:59:45;100323.19;;;8.53;100.00
17383;BME280;8809;51.892;8.384;2023-11-21T07:02:12;100330.34;;;8.59;100.00
17383;BME280;8809;51.892;8.384;2023-11-21T07:04:40;100330.75;;;8.68;100.00
17383;BME280;8809;51.892;8.384;2023-11-21T07:07:07;100332.63;;;8.70;100.00
17383;BME280;8809;51.892;8.384;2023-11-21T07:09:34;100341.72;;;8.61;100.00
17383;BME280;8809;51.892;8.384;2023-11-21T07:12:01;100343.28;;;8.57;100.00
17383;BME280;8809;51.892;8.384;2023-11-21T07:14:29;100343.50;;;8.62;100.00
17383;BME280;8809;51.892;8.384;2023-11-21T07:16:59;100352.94;;;8.60;100.00
17383;BME280;8809;51.892;8.384;2023-11-21T07:19:26;100351.44;;;8.65;100.00
17383;BME280;8809;51.892;8.384;2023-11-21T07:21:53;100350.16;;;8.74;100.00
17383;BME280;8809;51.892;8.384;2023-11-21T07:24:21;100355.53;;;8.79;100.00
17383;BME280;8809;51.892;8.384;2023-11-21T07:26:48;100361.56;;;8.78;100.00
17383;BME280;8809;51.892;8.384;2023-11-21T07:29:15;100363.34;;;8.79;100.00
17383;BME280;8809;51.892;8.384;2023-11-21T07:31:43;100362.44;;;8.78;100.00
17383;BME280;8809;51.892;8.384;2023-11-21T07:34:11;100366.97;;;8.82;100.00
17383;BME280;8809;51.892;8.384;2023-11-21T07:36:39;100380.47;;;8.74;100.00
17383;BME280;8809;51.892;8.384;2023-11-21T07:39:07;100377.97;;;8.77;100.00
17383;BME280;8809;51.892;8.384;2023-11-21T07:41:34;100388.38;;;8.77;100.00
17383;BME280;8809;51.892;8.384;2023-11-21T07:44:01;100389.69;;;8.86;100.00
17383;BME280;8809;51.892;8.384;2023-11-21T07:46:28;100397.63;;;8.89;100.00
17383;BME280;8809;51.892;8.384;2023-11-21T07:48:55;100394.81;;;9.04;100.00
17383;BME280;8809;51.892;8.384;2023-11-21T07:51:26;100394.78;;;9.03;100.00
17383;BME280;8809;51.892;8.384;2023-11-21T07:53:53;100402.16;;;8.93;100.00
17383;BME280;8809;51.892;8.384;2023-11-21T07:56:20;100399.09;;;9.02;100.00
17383;BME280;8809;51.892;8.384;2023-11-21T07:58:48;100398.38;;;9.06;100.00
17383;BME280;8809;51.892;8.384;2023-11-21T08:01:15;100401.47;;;8.98;100.00
17383;BME280;8809;51.892;8.384;2023-11-21T08:03:43;100403.09;;;8.96;100.00
17383;BME280;8809;51.892;8.384;2023-11-21T08:06:10;100406.47;;;8.93;100.00
17383;BME280;8809;51.892;8.384;2023-11-21T08:08:39;100403.66;;;8.88;100.00
17383;BME280;8809;51.892;8.384;2023-11-21T08:11:06;100413.81;;;9.02;100.00
17383;BME280;8809;51.892;8.384;2023-11-21T08:13:35;100414.63;;;9.01;100.00
17383;BME280;8809;51.892;8.384;2023-11-21T08:16:03;100417.41;;;9.05;100.00
17383;BME280;8809;51.892;8.384;2023-11-21T08:18:32;100412.34;;;9.08;100.00
17383;BME280;8809;51.892;8.384;2023-11-21T08:21:01;100413.25;;;9.09;100.00
17383;BME280;8809;51.892;8.384;2023-11-21T08:23:28;100415.63;;;9.04;100.00
17383;BME280;8809;51.892;8.384;2023-11-21T08:25:57;100422.91;;;9.11;100.00
17383;BME280;8809;51.892;8.384;2023-11-21T08:28:24;100425.09;;;9.02;100.00
17383;BME280;8809;51.892;8.384;2023-11-21T08:30:52;100426.94;;;9.05;100.00
17383;BME280;8809;51.892;8.384;2023-11-21T08:33:20;100438.72;;;9.16;100.00
17383;BME280;8809;51.892;8.384;2023-11-21T08:35:47;100440.00;;;9.06;100.00
17383;BME280;8809;51.892;8.384;2023-11-21T08:38:14;100446.81;;;9.22;100.00
17383;BME280;8809;51.892;8.384;2023-11-21T08:40:41;100444.94;;;9.19;100.00
17383;BME280;8809;51.892;8.384;2023-11-21T08:43:10;100450.97;;;9.18;100.00
17383;BME280;8809;51.892;8.384;2023-11-21T08:45:37;100454.47;;;9.19;100.00
17383;BME280;8809;51.892;8.384;2023-11-21T08:48:05;100456.19;;;9.18;100.00
17383;BME280;8809;51.892;8.384;2023-11-21T08:50:32;100456.03;;;9.15;100.00
17383;BME280;8809;51.892;8.384;2023-11-21T08:53:00;100452.75;;;9.19;100.00
17383;BME280;8809;51.892;8.384;2023-11-21T08:55:28;100466.44;;;9.15;100.00
17383;BME280;8809;51.892;8.384;2023-11-21T08:57:55;100471.94;;;9.21;100.00
17383;BME280;8809;51.892;8.384;2023-11-21T09:00:25;100467.25;;;9.34;100.00
17383;BME280;8809;51.892;8.384;2023-11-21T09:02:52;100475.47;;;9.23;100.00
17383;BME280;8809;51.892;8.384;2023-11-21T09:05:19;100478.56;;;9.34;100.00
17383;BME280;8809;51.892;8.384;2023-11-21T09:07:47;100483.28;;;9.23;100.00
17383;BME280;8809;51.892;8.384;2023-11-21T09:10:14;100484.66;;;9.35;100.00
17383;BME280;8809;51.892;8.384;2023-11-21T09:12:41;100488.16;;;9.35;100.00
17383;BME280;8809;51.892;8.384;2023-11-21T09:15:10;100488.78;;;9.49;100.00
17383;BME280;8809;51.892;8.384;2023-11-21T09:17:38;100494.09;;;9.52;100.00
17383;BME280;8809;51.892;8.384;2023-11-21T09:20:07;100501.81;;;9.49;100.00
17383;BME280;8809;51.892;8.384;2023-11-21T09:22:43;100495.78;;;9.50;100.00
17383;BME280;8809;51.892;8.384;2023-11-21T09:25:12;100502.06;;;9.55;100.00
17383;BME280;8809;51.892;8.384;2023-11-21T09:27:39;100500.34;;;9.55;100.00
17383;BME280;8809;51.892;8.384;2023-11-21T09:30:06;100499.31;;;9.52;100.00
17383;BME280;8809;51.892;8.384;2023-11-21T09:32:36;100504.66;;;9.55;100.00
17383;BME280;8809;51.892;8.384;2023-11-21T09:35:05;100508.91;;;9.53;100.00
17383;BME280;8809;51.892;8.384;2023-11-21T09:37:34;100517.09;;;9.60;100.00
17383;BME280;8809;51.892;8.384;2023-11-21T09:40:01;100521.59;;;9.64;100.00
17383;BME280;8809;51.892;8.384;2023-11-21T09:42:36;100529.25;;;9.61;100.00
17383;BME280;8809;51.892;8.384;2023-11-21T09:45:07;100525.56;;;9.76;100.00
17383;BME280;8809;51.892;8.384;2023-11-21T09:47:42;100530.00;;;9.78;100.00
17383;BME280;8809;51.892;8.384;2023-11-21T09:50:11;100530.34;;;9.66;100.00
17383;BME280;8809;51.892;8.384;2023-11-21T09:52:52;100541.31;;;9.79;100.00
17383;BME280;8809;51.892;8.384;2023-11-21T09:55:21;100538.78;;;9.80;100.00
17383;BME280;8809;51.892;8.384;2023-11-21T09:57:49;100545.50;;;9.75;100.00
17383;BME280;8809;51.892;8.384;2023-11-21T10:00:17;100546.59;;;9.80;100.00
17383;BME280;8809;51.892;8.384;2023-11-21T10:02:49;100545.00;;;9.84;100.00
17383;BME280;8809;51.892;8.384;2023-11-21T10:05:18;100553.16;;;9.91;100.00
17383;BME280;8809;51.892;8.384;2023-11-21T10:07:49;100549.22;;;9.80;100.00
17383;BME280;8809;51.892;8.384;2023-11-21T10:10:19;100560.06;;;9.91;100.00
17383;BME280;8809;51.892;8.384;2023-11-21T10:12:50;100552.69;;;9.81;100.00
17383;BME280;8809;51.892;8.384;2023-11-21T10:15:21;100556.56;;;9.90;100.00
17383;BME280;8809;51.892;8.384;2023-11-21T10:17:52;100561.78;;;9.90;100.00
17383;BME280;8809;51.892;8.384;2023-11-21T10:20:23;100557.75;;;9.97;100.00
17383;BME280;8809;51.892;8.384;2023-11-21T10:22:51;100562.47;;;10.05;100.00
17383;BME280;8809;51.892;8.384;2023-11-21T10:25:19;100563.44;;;10.08;100.00
17383;BME280;8809;51.892;8.384;2023-11-21T10:27:47;100560.47;;;10.00;100.00
17383;BME280;8809;51.892;8.384;2023-11-21T10:30:16;100561.78;;;9.90;100.00
17383;BME280;8809;51.892;8.384;2023-11-21T10:32:46;100564.94;;;10.02;100.00
17383;BME280;8809;51.892;8.384;2023-11-21T10:35:13;100567.44;;;9.99;100.00
17383;BME280;8809;51.892;8.384;2023-11-21T10:37:42;100560.03;;;10.10;100.00
17383;BME280;8809;51.892;8.384;2023-11-21T10:40:10;100563.75;;;10.15;100.00
17383;BME280;8809;51.892;8.384;2023-11-21T10:42:38;100573.47;;;10.18;100.00
17383;BME280;8809;51.892;8.384;2023-11-21T10:45:06;100570.06;;;10.20;100.00
17383;BME280;8809;51.892;8.384;2023-11-21T10:47:41;100567.59;;;10.23;100.00
17383;BME280;8809;51.892;8.384;2023-11-21T10:50:09;100577.69;;;10.16;100.00
17383;BME280;8809;51.892;8.384;2023-11-21T10:52:37;100572.81;;;10.23;100.00
17383;BME280;8809;51.892;8.384;2023-11-21T10:55:19;100583.63;;;10.13;100.00
17383;BME280;8809;51.892;8.384;2023-11-21T10:57:49;100577.47;;;10.11;100.00
17383;BME280;8809;51.892;8.384;2023-11-21T11:00:18;100582.28;;;10.02;100.00
17383;BME280;8809;51.892;8.384;2023-11-21T11:02:49;100573.06;;;10.10;100.00
17383;BME280;8809;51.892;8.384;2023-11-21T11:05:19;100586.88;;;10.08;100.00
17383;BME280;8809;51.892;8.384;2023-11-21T11:07:48;100592.41;;;10.15;100.00
17383;BME280;8809;51.892;8.384;2023-11-21T11:10:21;100593.91;;;10.10;100.00
17383;BME280;8809;51.892;8.384;2023-11-21T11:12:53;100602.38;;;10.04;100.00
17383;BME280;8809;51.892;8.384;2023-11-21T11:15:21;100602.88;;;9.96;100.00
17383;BME280;8809;51.892;8.384;2023-11-21T11:17:51;100611.91;;;10.04;100.00
17383;BME280;8809;51.892;8.384;2023-11-21T11:20:23;100612.31;;;10.13;100.00
17383;BME280;8809;51.892;8.384;2023-11-21T11:23:08;100620.63;;;10.04;100.00
17383;BME280;8809;51.892;8.384;2023-11-21T11:25:49;100623.22;;;10.04;100.00
17383;BME280;8809;51.892;8.384;2023-11-21T11:28:22;100629.41;;;10.07;100.00
17383;BME280;8809;51.892;8.384;2023-11-21T11:31:01;100628.94;;;9.96;100.00
17383;BME280;8809;51.892;8.384;2023-11-21T11:33:37;100639.34;;;9.96;100.00
17383;BME280;8809;51.892;8.384;2023-11-21T11:36:10;100640.25;;;9.96;100.00
17383;BME280;8809;51.892;8.384;2023-11-21T11:38:45;100640.25;;;9.96;100.00
17383;BME280;8809;51.892;8.384;2023-11-21T11:41:24;100637.56;;;9.95;100.00
17383;BME280;8809;51.892;8.384;2023-11-21T11:43:52;100637.25;;;9.87;100.00
17383;BME280;8809;51.892;8.384;2023-11-21T11:46:19;100637.91;;;9.83;100.00
17383;BME280;8809;51.892;8.384;2023-11-21T11:48:48;100631.81;;;9.83;100.00
17383;BME280;8809;51.892;8.384;2023-11-21T11:51:29;100638.63;;;9.98;100.00
17383;BME280;8809;51.892;8.384;2023-11-21T11:53:57;100647.25;;;9.97;100.00
17383;BME280;8809;51.892;8.384;2023-11-21T11:56:28;100649.16;;;9.82;100.00
17383;BME280;8809;51.892;8.384;2023-11-21T11:58:58;100650.75;;;9.79;100.00
17383;BME280;8809;51.892;8.384;2023-11-21T12:01:30;100656.84;;;9.79;100.00
17383;BME280;8809;51.892;8.384;2023-11-21T12:04:23;100649.78;;;9.77;100.00
17383;BME280;8809;51.892;8.384;2023-11-21T12:06:59;100652.31;;;9.75;100.00
17383;BME280;8809;51.892;8.384;2023-11-21T12:09:31;100654.44;;;9.84;100.00
17383;BME280;8809;51.892;8.384;2023-11-21T12:12:00;100662.72;;;9.75;100.00
17383;BME280;8809;51.892;8.384;2023-11-21T12:14:30;100668.69;;;9.73;100.00
17383;BME280;8809;51.892;8.384;2023-11-21T12:16:58;100670.16;;;9.85;100.00
17383;BME280;8809;51.892;8.384;2023-11-21T12:19:25;100679.59;;;9.83;100.00
17383;BME280;8809;51.892;8.384;2023-11-21T12:21:53;100684.25;;;9.71;100.00
17383;BME280;8809;51.892;8.384;2023-11-21T12:24:21;100681.63;;;9.71;100.00
17383;BME280;8809;51.892;8.384;2023-11-21T12:26:49;100690.72;;;9.79;100.00
17383;BME280;8809;51.892;8.384;2023-11-21T12:29:18;100692.69;;;9.85;100.00
17383;BME280;8809;51.892;8.384;2023-11-21T12:31:45;100689.91;;;9.80;100.00
17383;BME280;8809;51.892;8.384;2023-11-21T12:34:15;100702.97;;;9.82;100.00
17383;BME280;8809;51.892;8.384;2023-11-21T12:36:43;100703.75;;;9.79;100.00
17383;BME280;8809;51.892;8.384;2023-11-21T12:39:11;100701.81;;;9.75;100.00
17383;BME280;8809;51.892;8.384;2023-11-21T12:41:40;100712.78;;;9.68;100.00
17383;BME280;8809;51.892;8.384;2023-11-21T12:44:11;100701.16;;;9.79;100.00
17383;BME280;8809;51.892;8.384;2023-11-21T12:46:43;100716.38;;;9.72;100.00
17383;BME280;8809;51.892;8.384;2023-11-21T12:49:12;100715.06;;;9.62;100.00
17383;BME280;8809;51.892;8.384;2023-11-21T12:51:46;100716.84;;;9.63;100.00
17383;BME280;8809;51.892;8.384;2023-11-21T12:54:14;100718.22;;;9.55;100.00
17383;BME280;8809;51.892;8.384;2023-11-21T12:56:41;100728.47;;;9.52;100.00
17383;BME280;8809;51.892;8.384;2023-11-21T12:59:13;100719.84;;;9.53;100.00
17383;BME280;8809;51.892;8.384;2023-11-21T13:01:43;100720.22;;;9.60;100.00
17383;BME280;8809;51.892;8.384;2023-11-21T13:04:10;100725.44;;;9.60;100.00
17383;BME280;8809;51.892;8.384;2023-11-21T13:06:38;100732.38;;;9.60;100.00